createdAt,value
2017-10-15T00:01:07.954Z,0
2017-10-15T00:02:17.436Z,0
2017-10-15T00:03:26.795Z,0
2017-10-15T00:04:35.639Z,0
2017-10-15T00:05:44.674Z,0
2017-10-15T00:06:53.529Z,0
2017-10-15T00:08:02.413Z,0
2017-10-15T00:09:11.371Z,0
2017-10-15T00:10:20.237Z,0
2017-10-15T00:11:29.427Z,0
2017-10-15T00:12:38.347Z,0
2017-10-15T00:13:47.613Z,0
2017-10-15T00:14:56.451Z,0
2017-10-15T00:16:05.294Z,0
2017-10-15T00:17:14.292Z,0
2017-10-15T00:18:23.742Z,0
2017-10-15T00:19:32.582Z,0
2017-10-15T00:20:41.469Z,0
2017-10-15T00:21:50.415Z,0
2017-10-15T00:22:59.263Z,0
2017-10-15T00:24:08.106Z,0
2017-10-15T00:25:16.955Z,0
2017-10-15T00:26:26.226Z,0
2017-10-15T00:27:35.236Z,0
2017-10-15T00:28:44.130Z,0
2017-10-15T00:29:53.424Z,0
2017-10-15T00:31:02.360Z,0
2017-10-15T00:32:11.206Z,0
2017-10-15T00:33:20.068Z,0
2017-10-15T00:34:28.949Z,0
2017-10-15T00:35:38.096Z,0
2017-10-15T00:36:47.672Z,0
2017-10-15T00:37:56.534Z,0
2017-10-15T00:39:05.731Z,0
2017-10-15T00:40:14.652Z,0
2017-10-15T00:41:23.935Z,0
2017-10-15T00:42:32.777Z,0
2017-10-15T00:43:41.948Z,0
2017-10-15T00:44:50.825Z,0
2017-10-15T00:45:59.669Z,0
2017-10-15T00:47:08.562Z,0
2017-10-15T00:48:17.892Z,0
2017-10-15T00:49:26.764Z,0
2017-10-15T00:50:35.607Z,0
2017-10-15T00:51:44.542Z,0
2017-10-15T00:52:53.388Z,0
2017-10-15T00:54:02.403Z,0
2017-10-15T00:55:11.346Z,0
2017-10-15T00:56:20.186Z,0
2017-10-15T00:57:29.032Z,0
2017-10-15T00:58:37.973Z,0
2017-10-15T00:59:46.872Z,0
2017-10-15T01:00:55.715Z,0
2017-10-15T01:02:04.624Z,0
2017-10-15T01:03:13.478Z,0
2017-10-15T01:04:22.388Z,0
2017-10-15T01:05:31.768Z,0
2017-10-15T01:06:40.611Z,0
2017-10-15T01:07:49.807Z,0
2017-10-15T01:08:58.771Z,0
2017-10-15T01:10:07.609Z,0
2017-10-15T01:11:16.452Z,0
2017-10-15T01:12:25.442Z,0
2017-10-15T01:13:34.447Z,0
2017-10-15T01:14:43.807Z,0
2017-10-15T01:15:52.664Z,0
2017-10-15T01:17:01.784Z,0
2017-10-15T01:18:10.690Z,0
2017-10-15T01:19:19.600Z,0
2017-10-15T01:20:28.444Z,0
2017-10-15T01:21:37.288Z,0
2017-10-15T01:22:46.481Z,0
2017-10-15T01:23:55.715Z,0
2017-10-15T01:25:04.804Z,0
2017-10-15T01:26:13.672Z,0
2017-10-15T01:27:22.756Z,0
2017-10-15T01:28:31.977Z,0
2017-10-15T01:29:40.996Z,0
2017-10-15T01:30:49.949Z,0
2017-10-15T01:31:59.137Z,0
2017-10-15T01:33:08.296Z,0
2017-10-15T01:34:17.312Z,0
2017-10-15T01:35:26.613Z,0
2017-10-15T01:36:35.459Z,0
2017-10-15T01:37:44.299Z,0
2017-10-15T01:38:53.286Z,0
2017-10-15T01:40:02.121Z,0
2017-10-15T01:41:11.026Z,0
2017-10-15T01:42:19.994Z,0
2017-10-15T01:43:28.867Z,0
2017-10-15T01:44:38.176Z,0
2017-10-15T01:45:47.060Z,0
2017-10-15T01:46:55.898Z,0
2017-10-15T01:48:05.129Z,0
2017-10-15T01:49:14.501Z,0
2017-10-15T01:50:23.347Z,0
2017-10-15T01:51:32.183Z,0
2017-10-15T01:52:41.027Z,0
2017-10-15T01:53:49.863Z,0
2017-10-15T01:54:58.862Z,0
2017-10-15T01:56:07.834Z,0
2017-10-15T01:57:16.766Z,0
2017-10-15T01:58:25.747Z,0
2017-10-15T01:59:34.941Z,0
2017-10-15T02:00:43.785Z,0
2017-10-15T02:01:52.707Z,0
2017-10-15T02:03:01.549Z,0
2017-10-15T02:04:10.392Z,0
2017-10-15T02:05:19.308Z,0
2017-10-15T02:06:28.133Z,0
2017-10-15T02:07:36.977Z,0
2017-10-15T02:08:46.177Z,0
2017-10-15T02:09:55.022Z,0
2017-10-15T02:11:04.198Z,0
2017-10-15T02:12:13.236Z,0
2017-10-15T02:13:22.077Z,0
2017-10-15T02:14:30.946Z,0
2017-10-15T02:15:39.788Z,0
2017-10-15T02:16:48.632Z,0
2017-10-15T02:17:57.476Z,0
2017-10-15T02:19:06.312Z,0
2017-10-15T02:20:15.157Z,0
2017-10-15T02:21:23.997Z,0
2017-10-15T02:22:33.525Z,0
2017-10-15T02:23:42.704Z,0
2017-10-15T02:24:51.633Z,0
2017-10-15T02:26:00.539Z,0
2017-10-15T02:27:09.798Z,0
2017-10-15T02:28:19.078Z,0
2017-10-15T02:29:27.916Z,0
2017-10-15T02:30:36.761Z,0
2017-10-15T02:31:45.602Z,0
2017-10-15T02:32:54.442Z,0
2017-10-15T02:34:03.292Z,0
2017-10-15T02:35:12.128Z,0
2017-10-15T02:36:20.967Z,0
2017-10-15T02:37:30.147Z,0
2017-10-15T02:38:38.995Z,0
2017-10-15T02:39:47.897Z,0
2017-10-15T02:40:56.978Z,0
2017-10-15T02:42:05.950Z,0
2017-10-15T02:43:14.789Z,0
2017-10-15T02:44:23.659Z,0
2017-10-15T02:45:32.864Z,0
2017-10-15T02:46:41.701Z,0
2017-10-15T02:47:50.557Z,0
2017-10-15T02:48:59.379Z,0
2017-10-15T02:50:08.223Z,0
2017-10-15T02:51:17.061Z,0
2017-10-15T02:52:25.905Z,0
2017-10-15T02:53:34.740Z,0
2017-10-15T02:54:43.577Z,0
2017-10-15T02:55:52.765Z,0
2017-10-15T02:57:01.602Z,0
2017-10-15T02:58:10.443Z,0
2017-10-15T02:59:19.282Z,0
2017-10-15T03:00:28.119Z,0
2017-10-15T03:01:36.956Z,0
2017-10-15T03:02:45.796Z,0
2017-10-15T03:03:54.635Z,0
2017-10-15T03:05:03.478Z,0
2017-10-15T03:06:12.319Z,0
2017-10-15T03:07:21.159Z,0
2017-10-15T03:08:29.997Z,0
2017-10-15T03:09:38.836Z,0
2017-10-15T03:10:47.672Z,0
2017-10-15T03:11:56.520Z,0
2017-10-15T03:13:05.358Z,0
2017-10-15T03:14:14.203Z,0
2017-10-15T03:15:23.042Z,0
2017-10-15T03:16:31.877Z,0
2017-10-15T03:17:40.716Z,0
2017-10-15T03:18:49.554Z,0
2017-10-15T03:19:58.395Z,0
2017-10-15T03:21:07.235Z,0
2017-10-15T03:22:16.079Z,0
2017-10-15T03:23:24.921Z,0
2017-10-15T03:24:33.760Z,0
2017-10-15T03:25:42.599Z,0
2017-10-15T03:26:51.435Z,0
2017-10-15T03:28:00.288Z,0
2017-10-15T03:29:09.123Z,0
2017-10-15T03:30:17.975Z,0
2017-10-15T03:31:26.807Z,0
2017-10-15T03:32:35.648Z,0
2017-10-15T03:33:44.488Z,0
2017-10-15T03:34:53.328Z,0
2017-10-15T03:36:02.169Z,0
2017-10-15T03:37:11.008Z,0
2017-10-15T03:38:19.845Z,0
2017-10-15T03:39:28.693Z,0
2017-10-15T03:40:37.582Z,0
2017-10-15T03:41:46.408Z,0
2017-10-15T03:42:55.247Z,0
2017-10-15T03:44:04.081Z,0
2017-10-15T03:45:12.926Z,0
2017-10-15T03:46:21.759Z,0
2017-10-15T03:47:30.592Z,0
2017-10-15T03:48:39.428Z,0
2017-10-15T03:49:48.261Z,0
2017-10-15T03:50:57.436Z,0
2017-10-15T03:52:06.270Z,0
2017-10-15T03:53:15.104Z,0
2017-10-15T03:54:23.943Z,0
2017-10-15T03:55:33.117Z,0
2017-10-15T03:56:41.956Z,0
2017-10-15T03:57:50.789Z,0
2017-10-15T03:58:59.628Z,0
2017-10-15T04:00:08.461Z,0
2017-10-15T04:01:17.302Z,0
2017-10-15T04:02:26.133Z,0
2017-10-15T04:03:34.968Z,0
2017-10-15T04:04:43.805Z,0
2017-10-15T04:05:53.007Z,0
2017-10-15T04:07:01.838Z,0
2017-10-15T04:08:10.674Z,0
2017-10-15T04:09:19.504Z,0
2017-10-15T04:10:28.343Z,0
2017-10-15T04:11:37.181Z,0
2017-10-15T04:12:46.019Z,0
2017-10-15T04:13:54.852Z,0
2017-10-15T04:15:03.690Z,0
2017-10-15T04:16:12.525Z,0
2017-10-15T04:17:21.361Z,0
2017-10-15T04:18:30.197Z,0
2017-10-15T04:19:39.030Z,0
2017-10-15T04:20:47.867Z,0
2017-10-15T04:21:56.706Z,0
2017-10-15T04:23:05.540Z,0
2017-10-15T04:24:14.380Z,0
2017-10-15T04:25:23.217Z,0
2017-10-15T04:26:32.054Z,0
2017-10-15T04:27:40.886Z,0
2017-10-15T04:28:49.725Z,0
2017-10-15T04:29:58.560Z,0
2017-10-15T04:31:07.392Z,0
2017-10-15T04:32:16.229Z,0
2017-10-15T04:33:25.065Z,0
2017-10-15T04:34:33.900Z,0
2017-10-15T04:35:42.739Z,0
2017-10-15T04:36:51.573Z,0
2017-10-15T04:38:00.409Z,0
2017-10-15T04:39:09.242Z,0
2017-10-15T04:40:18.086Z,0
2017-10-15T04:41:26.919Z,0
2017-10-15T04:42:35.756Z,0
2017-10-15T04:43:44.589Z,0
2017-10-15T04:44:53.422Z,0
2017-10-15T04:46:02.262Z,0
2017-10-15T04:47:11.103Z,0
2017-10-15T04:48:19.941Z,0
2017-10-15T04:49:28.773Z,0
2017-10-15T04:50:37.607Z,0
2017-10-15T04:51:46.446Z,0
2017-10-15T04:52:55.282Z,0
2017-10-15T04:54:04.122Z,0
2017-10-15T04:55:12.953Z,0
2017-10-15T04:56:21.792Z,0
2017-10-15T04:57:30.624Z,0
2017-10-15T04:58:39.462Z,0
2017-10-15T04:59:48.296Z,0
2017-10-15T05:00:57.128Z,0
2017-10-15T05:02:05.971Z,0
2017-10-15T05:03:14.807Z,0
2017-10-15T05:04:23.640Z,0
2017-10-15T05:05:32.475Z,0
2017-10-15T05:06:41.307Z,0
2017-10-15T05:07:50.144Z,0
2017-10-15T05:08:58.973Z,0
2017-10-15T05:10:07.810Z,0
2017-10-15T05:11:16.655Z,0
2017-10-15T05:12:25.484Z,0
2017-10-15T05:13:34.314Z,4
2017-10-15T05:14:43.148Z,4
2017-10-15T05:15:52.325Z,0
2017-10-15T05:17:01.162Z,4
2017-10-15T05:18:09.999Z,4
2017-10-15T05:19:18.834Z,4
2017-10-15T05:20:27.675Z,8
2017-10-15T05:21:36.507Z,4
2017-10-15T05:22:45.344Z,8
2017-10-15T05:23:54.181Z,8
2017-10-15T05:25:03.015Z,12
2017-10-15T05:26:11.851Z,12
2017-10-15T05:27:21.032Z,12
2017-10-15T05:28:29.867Z,16
2017-10-15T05:29:38.706Z,20
2017-10-15T05:30:47.541Z,24
2017-10-15T05:31:56.380Z,24
2017-10-15T05:33:05.220Z,24
2017-10-15T05:34:14.055Z,28
2017-10-15T05:35:22.883Z,32
2017-10-15T05:36:31.719Z,36
2017-10-15T05:37:40.558Z,40
2017-10-15T05:38:49.395Z,48
2017-10-15T05:39:58.228Z,56
2017-10-15T05:41:07.070Z,64
2017-10-15T05:42:15.902Z,68
2017-10-15T05:43:25.070Z,72
2017-10-15T05:44:33.907Z,76
2017-10-15T05:45:42.739Z,80
2017-10-15T05:46:51.571Z,84
2017-10-15T05:48:00.408Z,92
2017-10-15T05:49:09.238Z,100
2017-10-15T05:50:18.083Z,108
2017-10-15T05:51:26.919Z,116
2017-10-15T05:52:35.753Z,120
2017-10-15T05:53:44.587Z,128
2017-10-15T05:54:53.424Z,136
2017-10-15T05:56:02.611Z,140
2017-10-15T05:57:11.434Z,148
2017-10-15T05:58:20.274Z,152
2017-10-15T05:59:29.111Z,164
2017-10-15T06:00:37.944Z,164
2017-10-15T06:01:46.784Z,164
2017-10-15T06:02:55.621Z,168
2017-10-15T06:04:04.796Z,172
2017-10-15T06:05:13.637Z,180
2017-10-15T06:06:22.469Z,192
2017-10-15T06:07:31.299Z,200
2017-10-15T06:08:40.136Z,212
2017-10-15T06:09:48.974Z,220
2017-10-15T06:10:57.814Z,228
2017-10-15T06:12:06.654Z,240
2017-10-15T06:13:15.485Z,248
2017-10-15T06:14:24.316Z,256
2017-10-15T06:15:33.156Z,268
2017-10-15T06:16:41.998Z,276
2017-10-15T06:17:50.832Z,280
2017-10-15T06:18:59.666Z,288
2017-10-15T06:20:08.499Z,304
2017-10-15T06:21:17.330Z,316
2017-10-15T06:22:26.171Z,324
2017-10-15T06:23:35.006Z,316
2017-10-15T06:24:43.839Z,316
2017-10-15T06:25:52.672Z,324
2017-10-15T06:27:01.508Z,336
2017-10-15T06:28:10.342Z,344
2017-10-15T06:29:19.185Z,348
2017-10-15T06:30:28.018Z,348
2017-10-15T06:31:36.853Z,352
2017-10-15T06:32:45.688Z,356
2017-10-15T06:33:54.524Z,360
2017-10-15T06:35:03.364Z,364
2017-10-15T06:36:12.203Z,368
2017-10-15T06:37:21.037Z,372
2017-10-15T06:38:29.864Z,372
2017-10-15T06:39:38.704Z,372
2017-10-15T06:40:47.539Z,380
2017-10-15T06:41:56.382Z,384
2017-10-15T06:43:05.210Z,388
2017-10-15T06:44:14.045Z,388
2017-10-15T06:45:22.882Z,392
2017-10-15T06:46:31.727Z,396
2017-10-15T06:47:40.559Z,408
2017-10-15T06:48:49.391Z,412
2017-10-15T06:49:58.229Z,412
2017-10-15T06:51:07.063Z,412
2017-10-15T06:52:15.900Z,420
2017-10-15T06:53:24.734Z,428
2017-10-15T06:54:33.569Z,440
2017-10-15T06:55:42.403Z,456
2017-10-15T06:56:51.258Z,468
2017-10-15T06:58:00.079Z,472
2017-10-15T06:59:08.914Z,472
2017-10-15T07:00:17.762Z,480
2017-10-15T07:01:26.592Z,492
2017-10-15T07:02:35.423Z,496
2017-10-15T07:03:44.255Z,500
2017-10-15T07:04:53.092Z,508
2017-10-15T07:06:01.929Z,512
2017-10-15T07:07:10.768Z,512
2017-10-15T07:08:19.939Z,512
2017-10-15T07:09:28.777Z,512
2017-10-15T07:10:37.606Z,520
2017-10-15T07:11:46.442Z,528
2017-10-15T07:12:55.288Z,532
2017-10-15T07:14:04.123Z,540
2017-10-15T07:15:12.959Z,536
2017-10-15T07:16:21.799Z,548
2017-10-15T07:17:30.639Z,556
2017-10-15T07:18:39.474Z,552
2017-10-15T07:19:48.312Z,568
2017-10-15T07:20:57.150Z,588
2017-10-15T07:22:05.975Z,600
2017-10-15T07:23:14.815Z,604
2017-10-15T07:24:23.651Z,620
2017-10-15T07:25:32.490Z,632
2017-10-15T07:26:41.321Z,644
2017-10-15T07:27:50.159Z,644
2017-10-15T07:28:59.001Z,648
2017-10-15T07:30:07.836Z,636
2017-10-15T07:31:16.675Z,640
2017-10-15T07:32:25.507Z,660
2017-10-15T07:33:34.342Z,668
2017-10-15T07:34:43.188Z,660
2017-10-15T07:35:52.018Z,664
2017-10-15T07:37:00.859Z,676
2017-10-15T07:38:10.024Z,692
2017-10-15T07:39:18.867Z,696
2017-10-15T07:40:27.696Z,696
2017-10-15T07:41:36.535Z,696
2017-10-15T07:42:45.368Z,696
2017-10-15T07:43:54.206Z,696
2017-10-15T07:45:03.046Z,700
2017-10-15T07:46:11.884Z,700
2017-10-15T07:47:20.721Z,704
2017-10-15T07:48:29.562Z,704
2017-10-15T07:49:38.393Z,688
2017-10-15T07:50:47.222Z,672
2017-10-15T07:51:56.061Z,660
2017-10-15T07:53:04.896Z,660
2017-10-15T07:54:13.733Z,672
2017-10-15T07:55:22.577Z,672
2017-10-15T07:56:31.413Z,668
2017-10-15T07:57:40.248Z,688
2017-10-15T07:58:49.080Z,712
2017-10-15T07:59:57.919Z,728
2017-10-15T08:01:07.102Z,744
2017-10-15T08:02:15.938Z,760
2017-10-15T08:03:24.778Z,768
2017-10-15T08:04:33.617Z,772
2017-10-15T08:05:42.452Z,772
2017-10-15T08:06:51.300Z,772
2017-10-15T08:08:00.131Z,772
2017-10-15T08:09:08.976Z,776
2017-10-15T08:10:17.809Z,772
2017-10-15T08:11:26.642Z,772
2017-10-15T08:12:35.482Z,776
2017-10-15T08:13:44.322Z,784
2017-10-15T08:14:53.153Z,796
2017-10-15T08:16:01.991Z,808
2017-10-15T08:17:10.823Z,824
2017-10-15T08:18:19.660Z,836
2017-10-15T08:19:28.497Z,840
2017-10-15T08:20:37.343Z,840
2017-10-15T08:21:46.173Z,848
2017-10-15T08:22:55.018Z,844
2017-10-15T08:24:03.848Z,848
2017-10-15T08:25:12.684Z,856
2017-10-15T08:26:21.524Z,856
2017-10-15T08:27:30.364Z,852
2017-10-15T08:28:39.202Z,852
2017-10-15T08:29:48.038Z,852
2017-10-15T08:30:56.875Z,848
2017-10-15T08:32:06.058Z,856
2017-10-15T08:33:14.892Z,860
2017-10-15T08:34:23.733Z,856
2017-10-15T08:35:32.564Z,864
2017-10-15T08:36:41.406Z,872
2017-10-15T08:37:50.240Z,880
2017-10-15T08:38:59.081Z,880
2017-10-15T08:40:07.922Z,880
2017-10-15T08:41:16.757Z,892
2017-10-15T08:42:25.591Z,896
2017-10-15T08:43:34.426Z,888
2017-10-15T08:44:43.263Z,904
2017-10-15T08:45:52.098Z,904
2017-10-15T08:47:00.937Z,896
2017-10-15T08:48:09.775Z,888
2017-10-15T08:49:18.612Z,904
2017-10-15T08:50:27.452Z,908
2017-10-15T08:51:36.289Z,860
2017-10-15T08:52:45.129Z,776
2017-10-15T08:53:53.959Z,812
2017-10-15T08:55:02.797Z,896
2017-10-15T08:56:11.638Z,940
2017-10-15T08:57:20.472Z,928
2017-10-15T08:58:29.309Z,912
2017-10-15T08:59:38.484Z,940
2017-10-15T09:00:47.323Z,940
2017-10-15T09:01:56.160Z,908
2017-10-15T09:03:04.999Z,920
2017-10-15T09:04:13.838Z,936
2017-10-15T09:05:22.671Z,936
2017-10-15T09:06:31.510Z,916
2017-10-15T09:07:40.351Z,928
2017-10-15T09:08:49.192Z,956
2017-10-15T09:09:58.030Z,964
2017-10-15T09:11:06.867Z,956
2017-10-15T09:12:15.707Z,960
2017-10-15T09:13:24.550Z,972
2017-10-15T09:14:33.379Z,956
2017-10-15T09:15:42.210Z,952
2017-10-15T09:16:51.049Z,952
2017-10-15T09:18:00.226Z,948
2017-10-15T09:19:09.063Z,980
2017-10-15T09:20:17.898Z,988
2017-10-15T09:21:26.736Z,976
2017-10-15T09:22:35.570Z,976
2017-10-15T09:23:44.408Z,992
2017-10-15T09:24:53.589Z,1000
2017-10-15T09:26:02.424Z,988
2017-10-15T09:27:11.255Z,992
2017-10-15T09:28:20.106Z,984
2017-10-15T09:29:28.930Z,996
2017-10-15T09:30:37.773Z,1004
2017-10-15T09:31:46.610Z,996
2017-10-15T09:32:55.453Z,992
2017-10-15T09:34:04.293Z,1000
2017-10-15T09:35:13.133Z,1000
2017-10-15T09:36:21.972Z,980
2017-10-15T09:37:30.816Z,956
2017-10-15T09:38:39.654Z,972
2017-10-15T09:39:48.489Z,980
2017-10-15T09:40:57.332Z,992
2017-10-15T09:42:06.171Z,1004
2017-10-15T09:43:15.011Z,992
2017-10-15T09:44:24.167Z,996
2017-10-15T09:45:33.006Z,1000
2017-10-15T09:46:41.847Z,1000
2017-10-15T09:47:50.686Z,1012
2017-10-15T09:48:59.528Z,1004
2017-10-15T09:50:08.365Z,1020
2017-10-15T09:51:17.203Z,996
2017-10-15T09:52:26.058Z,1008
2017-10-15T09:53:34.884Z,1024
2017-10-15T09:54:43.726Z,1024
2017-10-15T09:55:52.603Z,1028
2017-10-15T09:57:01.453Z,1044
2017-10-15T09:58:10.293Z,1032
2017-10-15T09:59:19.141Z,1024
2017-10-15T10:00:28.413Z,1024
2017-10-15T10:01:37.392Z,1056
2017-10-15T10:02:46.232Z,1056
2017-10-15T10:03:55.077Z,1052
2017-10-15T10:05:04.245Z,1040
2017-10-15T10:06:13.086Z,1048
2017-10-15T10:07:21.929Z,1052
2017-10-15T10:08:31.110Z,1048
2017-10-15T10:09:39.956Z,1040
2017-10-15T10:10:49.135Z,1032
2017-10-15T10:11:58.006Z,1036
2017-10-15T10:13:06.880Z,1040
2017-10-15T10:14:15.726Z,1052
2017-10-15T10:15:24.561Z,1096
2017-10-15T10:16:33.860Z,1104
2017-10-15T10:17:42.697Z,1064
2017-10-15T10:18:51.541Z,1068
2017-10-15T10:20:00.382Z,1072
2017-10-15T10:21:09.222Z,1088
2017-10-15T10:22:18.058Z,1092
2017-10-15T10:23:26.905Z,1064
2017-10-15T10:24:35.756Z,1040
2017-10-15T10:25:44.600Z,1036
2017-10-15T10:26:53.440Z,1052
2017-10-15T10:28:02.278Z,1032
2017-10-15T10:29:11.111Z,1024
2017-10-15T10:30:19.951Z,1036
2017-10-15T10:31:28.792Z,1044
2017-10-15T10:32:37.634Z,1040
2017-10-15T10:33:46.483Z,1036
2017-10-15T10:34:55.323Z,1032
2017-10-15T10:36:04.161Z,1016
2017-10-15T10:37:13.004Z,1012
2017-10-15T10:38:21.854Z,1004
2017-10-15T10:39:30.689Z,1016
2017-10-15T10:40:39.862Z,1032
2017-10-15T10:41:48.705Z,1048
2017-10-15T10:42:57.879Z,1060
2017-10-15T10:44:06.737Z,1064
2017-10-15T10:45:15.910Z,1072
2017-10-15T10:46:24.751Z,1068
2017-10-15T10:47:33.592Z,1072
2017-10-15T10:48:42.432Z,1044
2017-10-15T10:49:51.266Z,1028
2017-10-15T10:51:00.106Z,1016
2017-10-15T10:52:08.946Z,1016
2017-10-15T10:53:17.788Z,1020
2017-10-15T10:54:26.629Z,1012
2017-10-15T10:55:35.467Z,1012
2017-10-15T10:56:44.309Z,984
2017-10-15T10:57:53.147Z,1008
2017-10-15T10:59:01.991Z,1008
2017-10-15T11:00:10.839Z,1000
2017-10-15T11:01:19.678Z,1012
2017-10-15T11:02:28.510Z,1064
2017-10-15T11:03:37.354Z,1044
2017-10-15T11:04:46.193Z,1048
2017-10-15T11:05:55.035Z,1032
2017-10-15T11:07:03.880Z,1024
2017-10-15T11:08:12.722Z,1012
2017-10-15T11:09:21.560Z,1008
2017-10-15T11:10:30.403Z,968
2017-10-15T11:11:39.589Z,884
2017-10-15T11:12:48.427Z,740
2017-10-15T11:13:57.267Z,876
2017-10-15T11:15:06.105Z,996
2017-10-15T11:16:14.948Z,784
2017-10-15T11:17:23.791Z,836
2017-10-15T11:18:32.630Z,812
2017-10-15T11:19:41.469Z,916
2017-10-15T11:20:50.307Z,1204
2017-10-15T11:21:59.146Z,1300
2017-10-15T11:23:07.985Z,1044
2017-10-15T11:24:16.828Z,996
2017-10-15T11:25:25.669Z,1068
2017-10-15T11:26:34.510Z,1104
2017-10-15T11:27:43.356Z,1056
2017-10-15T11:28:52.203Z,1152
2017-10-15T11:30:01.045Z,1120
2017-10-15T11:31:09.883Z,1136
2017-10-15T11:32:18.730Z,1176
2017-10-15T11:33:27.565Z,1068
2017-10-15T11:34:36.405Z,1072
2017-10-15T11:35:45.251Z,1164
2017-10-15T11:36:54.088Z,1028
2017-10-15T11:38:02.940Z,932
2017-10-15T11:39:11.803Z,880
2017-10-15T11:40:20.622Z,892
2017-10-15T11:41:29.465Z,880
2017-10-15T11:42:38.300Z,1036
2017-10-15T11:43:47.140Z,944
2017-10-15T11:44:55.978Z,924
2017-10-15T11:46:04.829Z,960
2017-10-15T11:47:13.678Z,932
2017-10-15T11:48:22.519Z,1140
2017-10-15T11:49:31.359Z,1468
2017-10-15T11:50:40.202Z,988
2017-10-15T11:51:49.037Z,924
2017-10-15T11:52:57.876Z,896
2017-10-15T11:54:06.720Z,912
2017-10-15T11:55:15.551Z,916
2017-10-15T11:56:24.396Z,912
2017-10-15T11:57:33.233Z,912
2017-10-15T11:58:42.080Z,940
2017-10-15T11:59:50.916Z,940
2017-10-15T12:00:59.762Z,920
2017-10-15T12:02:08.607Z,940
2017-10-15T12:03:17.449Z,904
2017-10-15T12:04:26.284Z,876
2017-10-15T12:05:35.117Z,864
2017-10-15T12:06:43.964Z,864
2017-10-15T12:07:52.801Z,872
2017-10-15T12:09:01.649Z,876
2017-10-15T12:10:10.492Z,880
2017-10-15T12:11:19.329Z,888
2017-10-15T12:12:28.166Z,948
2017-10-15T12:13:37.121Z,892
2017-10-15T12:14:45.973Z,896
2017-10-15T12:15:54.868Z,872
2017-10-15T12:17:03.711Z,844
2017-10-15T12:18:12.553Z,836
2017-10-15T12:19:21.394Z,840
2017-10-15T12:20:30.236Z,816
2017-10-15T12:21:39.077Z,820
2017-10-15T12:22:47.920Z,824
2017-10-15T12:23:56.755Z,848
2017-10-15T12:25:05.600Z,852
2017-10-15T12:26:14.436Z,864
2017-10-15T12:27:23.287Z,840
2017-10-15T12:28:32.182Z,828
2017-10-15T12:29:41.024Z,800
2017-10-15T12:30:49.871Z,796
2017-10-15T12:31:59.063Z,820
2017-10-15T12:33:07.906Z,816
2017-10-15T12:34:16.743Z,848
2017-10-15T12:35:25.586Z,908
2017-10-15T12:36:34.424Z,1024
2017-10-15T12:37:43.266Z,1140
2017-10-15T12:38:52.110Z,912
2017-10-15T12:40:00.947Z,840
2017-10-15T12:41:09.787Z,776
2017-10-15T12:42:18.630Z,800
2017-10-15T12:43:27.479Z,788
2017-10-15T12:44:36.314Z,800
2017-10-15T12:45:45.159Z,852
2017-10-15T12:46:54.040Z,812
2017-10-15T12:48:03.043Z,664
2017-10-15T12:49:11.886Z,720
2017-10-15T12:50:20.723Z,724
2017-10-15T12:51:29.564Z,764
2017-10-15T12:52:38.414Z,520
2017-10-15T12:53:47.266Z,500
2017-10-15T12:54:56.347Z,504
2017-10-15T12:56:05.205Z,676
2017-10-15T12:57:14.215Z,508
2017-10-15T12:58:23.057Z,776
2017-10-15T12:59:31.896Z,784
2017-10-15T13:00:40.839Z,800
2017-10-15T13:01:49.742Z,784
2017-10-15T13:02:58.919Z,784
2017-10-15T13:04:07.810Z,720
2017-10-15T13:05:16.651Z,880
2017-10-15T13:06:25.675Z,1252
2017-10-15T13:07:34.511Z,1400
2017-10-15T13:08:43.431Z,1540
2017-10-15T13:09:52.626Z,1860
2017-10-15T13:11:01.572Z,1820
2017-10-15T13:12:10.412Z,1488
2017-10-15T13:13:19.256Z,1248
2017-10-15T13:14:28.091Z,720
2017-10-15T13:15:36.934Z,720
2017-10-15T13:16:45.770Z,716
2017-10-15T13:17:54.612Z,724
2017-10-15T13:19:03.453Z,700
2017-10-15T13:20:12.287Z,696
2017-10-15T13:21:21.139Z,744
2017-10-15T13:22:29.985Z,756
2017-10-15T13:23:38.829Z,800
2017-10-15T13:24:47.666Z,776
2017-10-15T13:25:56.507Z,716
2017-10-15T13:27:05.344Z,676
2017-10-15T13:28:14.524Z,684
2017-10-15T13:29:23.361Z,668
2017-10-15T13:30:32.198Z,652
2017-10-15T13:31:41.041Z,684
2017-10-15T13:32:49.880Z,652
2017-10-15T13:33:59.067Z,684
2017-10-15T13:35:07.911Z,668
2017-10-15T13:36:16.752Z,636
2017-10-15T13:37:25.598Z,632
2017-10-15T13:38:34.432Z,636
2017-10-15T13:39:43.276Z,644
2017-10-15T13:40:52.120Z,656
2017-10-15T13:42:00.958Z,632
2017-10-15T13:43:09.801Z,652
2017-10-15T13:44:18.647Z,640
2017-10-15T13:45:27.490Z,608
2017-10-15T13:46:36.333Z,608
2017-10-15T13:47:45.171Z,620
2017-10-15T13:48:54.013Z,620
2017-10-15T13:50:02.856Z,628
2017-10-15T13:51:11.695Z,644
2017-10-15T13:52:20.535Z,660
2017-10-15T13:53:29.380Z,636
2017-10-15T13:54:38.219Z,612
2017-10-15T13:55:47.059Z,604
2017-10-15T13:56:55.898Z,592
2017-10-15T13:58:04.740Z,576
2017-10-15T13:59:13.926Z,568
2017-10-15T14:00:22.764Z,568
2017-10-15T14:01:31.870Z,548
2017-10-15T14:02:40.817Z,552
2017-10-15T14:03:49.663Z,540
2017-10-15T14:04:59.149Z,524
2017-10-15T14:06:07.989Z,524
2017-10-15T14:07:17.286Z,524
2017-10-15T14:08:26.257Z,512
2017-10-15T14:09:35.325Z,508
2017-10-15T14:10:44.231Z,516
2017-10-15T14:11:53.084Z,520
2017-10-15T14:13:01.927Z,512
2017-10-15T14:14:10.770Z,508
2017-10-15T14:15:20.023Z,496
2017-10-15T14:16:28.860Z,484
2017-10-15T14:17:37.945Z,480
2017-10-15T14:18:47.312Z,472
2017-10-15T14:19:56.607Z,472
2017-10-15T14:21:05.536Z,468
2017-10-15T14:22:14.510Z,460
2017-10-15T14:23:23.381Z,456
2017-10-15T14:24:32.330Z,448
2017-10-15T14:25:41.282Z,452
2017-10-15T14:26:50.237Z,448
2017-10-15T14:27:59.189Z,444
2017-10-15T14:29:08.215Z,432
2017-10-15T14:30:17.443Z,432
2017-10-15T14:31:26.364Z,428
2017-10-15T14:32:35.262Z,428
2017-10-15T14:33:44.161Z,416
2017-10-15T14:34:53.103Z,412
2017-10-15T14:36:01.946Z,404
2017-10-15T14:37:10.786Z,400
2017-10-15T14:38:19.656Z,400
2017-10-15T14:39:28.884Z,392
2017-10-15T14:40:38.066Z,388
2017-10-15T14:41:46.907Z,384
2017-10-15T14:42:55.745Z,376
2017-10-15T14:44:04.588Z,372
2017-10-15T14:45:13.430Z,372
2017-10-15T14:46:22.265Z,364
2017-10-15T14:47:31.102Z,356
2017-10-15T14:48:39.944Z,352
2017-10-15T14:49:48.783Z,344
2017-10-15T14:50:57.965Z,340
2017-10-15T14:52:07.139Z,336
2017-10-15T14:53:15.984Z,332
2017-10-15T14:54:24.827Z,328
2017-10-15T14:55:33.669Z,324
2017-10-15T14:56:42.509Z,320
2017-10-15T14:57:51.352Z,320
2017-10-15T14:59:00.199Z,312
2017-10-15T15:00:09.030Z,308
2017-10-15T15:01:17.868Z,304
2017-10-15T15:02:26.709Z,304
2017-10-15T15:03:35.557Z,292
2017-10-15T15:04:44.394Z,288
2017-10-15T15:05:53.427Z,284
2017-10-15T15:07:02.374Z,280
2017-10-15T15:08:11.302Z,276
2017-10-15T15:09:20.141Z,272
2017-10-15T15:10:28.988Z,268
2017-10-15T15:11:37.858Z,264
2017-10-15T15:12:46.803Z,260
2017-10-15T15:13:55.787Z,256
2017-10-15T15:15:04.630Z,252
2017-10-15T15:16:13.475Z,248
2017-10-15T15:17:22.310Z,240
2017-10-15T15:18:31.151Z,236
2017-10-15T15:19:39.994Z,232
2017-10-15T15:20:48.831Z,224
2017-10-15T15:21:57.787Z,220
2017-10-15T15:23:06.715Z,216
2017-10-15T15:24:15.615Z,212
2017-10-15T15:25:24.499Z,212
2017-10-15T15:26:33.547Z,204
2017-10-15T15:27:42.381Z,200
2017-10-15T15:28:51.610Z,196
2017-10-15T15:30:00.447Z,192
2017-10-15T15:31:09.346Z,192
2017-10-15T15:32:18.208Z,184
2017-10-15T15:33:27.064Z,180
2017-10-15T15:34:35.904Z,172
2017-10-15T15:35:44.743Z,168
2017-10-15T15:36:53.587Z,164
2017-10-15T15:38:02.427Z,160
2017-10-15T15:39:11.425Z,156
2017-10-15T15:40:20.266Z,148
2017-10-15T15:41:29.104Z,148
2017-10-15T15:42:37.945Z,144
2017-10-15T15:43:47.312Z,140
2017-10-15T15:44:56.168Z,132
2017-10-15T15:46:05.404Z,128
2017-10-15T15:47:14.328Z,120
2017-10-15T15:48:23.472Z,116
2017-10-15T15:49:32.429Z,112
2017-10-15T15:50:41.281Z,112
2017-10-15T15:51:50.124Z,104
2017-10-15T15:52:59.006Z,100
2017-10-15T15:54:07.812Z,96
2017-10-15T15:55:16.655Z,92
2017-10-15T15:56:25.488Z,88
2017-10-15T15:57:34.334Z,80
2017-10-15T15:58:43.171Z,80
2017-10-15T15:59:52.012Z,72
2017-10-15T16:01:00.856Z,68
2017-10-15T16:02:09.697Z,60
2017-10-15T16:03:18.585Z,60
2017-10-15T16:04:27.934Z,56
2017-10-15T16:05:36.778Z,48
2017-10-15T16:06:45.613Z,48
2017-10-15T16:07:54.450Z,44
2017-10-15T16:09:03.297Z,40